sensor_id;sensor_type;location;lat;lon;timestamp;P1;durP1;ratioP1;P2;durP2;ratioP2
16407;SDS011;8313;49.894;8.084;2023-01-24T00:01:14;15.00;;;6.03;;
16407;SDS011;8313;49.894;8.084;2023-01-24T00:03:39;11.50;;;5.80;;
16407;SDS011;8313;49.894;8.084;2023-01-24T00:06:05;8.67;;;5.20;;
16407;SDS011;8313;49.894;8.084;2023-01-24T00:08:31;12.50;;;5.50;;
16407;SDS011;8313;49.894;8.084;2023-01-24T00:10:57;10.17;;;5.43;;
16407;SDS011;8313;49.894;8.084;2023-01-24T00:13:24;7.50;;;5.23;;
16407;SDS011;8313;49.894;8.084;2023-01-24T00:15:50;13.10;;;6.97;;
16407;SDS011;8313;49.894;8.084;2023-01-24T00:18:16;10.83;;;6.63;;
16407;SDS011;8313;49.894;8.084;2023-01-24T00:20:41;9.60;;;5.83;;
16407;SDS011;8313;49.894;8.084;2023-01-24T00:23:07;12.50;;;5.83;;
16407;SDS011;8313;49.894;8.084;2023-01-24T00:25:33;10.57;;;6.20;;
16407;SDS011;8313;49.894;8.084;2023-01-24T00:27:58;8.37;;;5.73;;
16407;SDS011;8313;49.894;8.084;2023-01-24T00:30:24;10.63;;;6.00;;
16407;SDS011;8313;49.894;8.084;2023-01-24T00:32:50;11.70;;;6.20;;
16407;SDS011;8313;49.894;8.084;2023-01-24T00:35:15;14.03;;;6.80;;
16407;SDS011;8313;49.894;8.084;2023-01-24T00:37:41;10.00;;;5.33;;
16407;SDS011;8313;49.894;8.084;2023-01-24T00:40:07;10.60;;;5.60;;
16407;SDS011;8313;49.894;8.084;2023-01-24T00:42:34;11.30;;;6.10;;
16407;SDS011;8313;49.894;8.084;2023-01-24T00:44:59;9.77;;;5.27;;
16407;SDS011;8313;49.894;8.084;2023-01-24T00:47:25;6.93;;;4.80;;
16407;SDS011;8313;49.894;8.084;2023-01-24T00:49:51;8.03;;;5.00;;
16407;SDS011;8313;49.894;8.084;2023-01-24T00:52:16;12.40;;;5.77;;
16407;SDS011;8313;49.894;8.084;2023-01-24T00:54:42;8.57;;;5.30;;
16407;SDS011;8313;49.894;8.084;2023-01-24T00:57:07;9.20;;;5.30;;
16407;SDS011;8313;49.894;8.084;2023-01-24T00:59:33;9.40;;;5.63;;
16407;SDS011;8313;49.894;8.084;2023-01-24T01:01:59;10.10;;;6.00;;
16407;SDS011;8313;49.894;8.084;2023-01-24T01:04:25;9.53;;;5.27;;
16407;SDS011;8313;49.894;8.084;2023-01-24T01:06:50;11.40;;;5.60;;
16407;SDS011;8313;49.894;8.084;2023-01-24T01:09:16;15.13;;;6.67;;
16407;SDS011;8313;49.894;8.084;2023-01-24T01:11:42;8.13;;;5.00;;
16407;SDS011;8313;49.894;8.084;2023-01-24T01:14:08;9.47;;;5.37;;
16407;SDS011;8313;49.894;8.084;2023-01-24T01:16:34;9.30;;;5.40;;
16407;SDS011;8313;49.894;8.084;2023-01-24T01:19:02;9.80;;;6.73;;
16407;SDS011;8313;49.894;8.084;2023-01-24T01:21:29;12.47;;;7.00;;
16407;SDS011;8313;49.894;8.084;2023-01-24T01:23:55;8.73;;;5.37;;
16407;SDS011;8313;49.894;8.084;2023-01-24T01:26:22;9.67;;;5.83;;
16407;SDS011;8313;49.894;8.084;2023-01-24T01:28:48;10.03;;;5.50;;
16407;SDS011;8313;49.894;8.084;2023-01-24T01:31:14;10.13;;;6.60;;
16407;SDS011;8313;49.894;8.084;2023-01-24T01:33:42;12.60;;;6.63;;
16407;SDS011;8313;49.894;8.084;2023-01-24T01:36:08;11.27;;;5.90;;
16407;SDS011;8313;49.894;8.084;2023-01-24T01:38:35;11.90;;;5.53;;
16407;SDS011;8313;49.894;8.084;2023-01-24T01:41:01;10.90;;;5.83;;
16407;SDS011;8313;49.894;8.084;2023-01-24T01:43:28;7.50;;;5.47;;
16407;SDS011;8313;49.894;8.084;2023-01-24T01:45:56;14.37;;;6.60;;
16407;SDS011;8313;49.894;8.084;2023-01-24T01:48:33;13.47;;;6.30;;
16407;SDS011;8313;49.894;8.084;2023-01-24T01:51:14;7.80;;;5.20;;
16407;SDS011;8313;49.894;8.084;2023-01-24T01:58:59;9.73;;;4.97;;
16407;SDS011;8313;49.894;8.084;2023-01-24T02:01:30;8.10;;;5.20;;
16407;SDS011;8313;49.894;8.084;2023-01-24T02:04:07;8.63;;;5.50;;
16407;SDS011;8313;49.894;8.084;2023-01-24T02:07:22;11.53;;;6.77;;
16407;SDS011;8313;49.894;8.084;2023-01-24T02:09:31;11.53;;;6.20;;
16407;SDS011;8313;49.894;8.084;2023-01-24T02:12:00;13.30;;;6.40;;
16407;SDS011;8313;49.894;8.084;2023-01-24T02:14:29;10.57;;;6.67;;
16407;SDS011;8313;49.894;8.084;2023-01-24T02:17:16;11.17;;;5.77;;
16407;SDS011;8313;49.894;8.084;2023-01-24T02:27:42;12.80;;;6.50;;
16407;SDS011;8313;49.894;8.084;2023-01-24T02:30:08;11.87;;;6.13;;
16407;SDS011;8313;49.894;8.084;2023-01-24T02:32:34;11.70;;;6.40;;
16407;SDS011;8313;49.894;8.084;2023-01-24T02:35:01;10.13;;;6.13;;
16407;SDS011;8313;49.894;8.084;2023-01-24T02:37:26;14.13;;;6.53;;
16407;SDS011;8313;49.894;8.084;2023-01-24T02:42:22;10.50;;;6.60;;
16407;SDS011;8313;49.894;8.084;2023-01-24T02:45:08;9.33;;;6.20;;
16407;SDS011;8313;49.894;8.084;2023-01-24T02:47:50;12.93;;;6.27;;
16407;SDS011;8313;49.894;8.084;2023-01-24T02:50:18;11.10;;;6.00;;
16407;SDS011;8313;49.894;8.084;2023-01-24T02:52:46;8.60;;;4.87;;
16407;SDS011;8313;49.894;8.084;2023-01-24T02:55:30;12.73;;;5.90;;
16407;SDS011;8313;49.894;8.084;2023-01-24T02:57:56;10.67;;;5.40;;
16407;SDS011;8313;49.894;8.084;2023-01-24T03:00:41;8.17;;;4.90;;
16407;SDS011;8313;49.894;8.084;2023-01-24T03:03:10;12.07;;;6.00;;
16407;SDS011;8313;49.894;8.084;2023-01-24T03:05:36;9.30;;;4.50;;
16407;SDS011;8313;49.894;8.084;2023-01-24T03:08:14;10.07;;;5.97;;
16407;SDS011;8313;49.894;8.084;2023-01-24T03:10:40;13.33;;;6.33;;
16407;SDS011;8313;49.894;8.084;2023-01-24T03:13:06;8.83;;;5.47;;
16407;SDS011;8313;49.894;8.084;2023-01-24T03:15:50;11.90;;;5.13;;
16407;SDS011;8313;49.894;8.084;2023-01-24T03:18:34;9.10;;;5.87;;
16407;SDS011;8313;49.894;8.084;2023-01-24T03:21:19;9.40;;;6.13;;
16407;SDS011;8313;49.894;8.084;2023-01-24T03:24:03;12.90;;;6.33;;
16407;SDS011;8313;49.894;8.084;2023-01-24T03:26:48;9.20;;;5.40;;
16407;SDS011;8313;49.894;8.084;2023-01-24T03:29:32;9.27;;;6.00;;
16407;SDS011;8313;49.894;8.084;2023-01-24T03:32:17;10.60;;;4.97;;
16407;SDS011;8313;49.894;8.084;2023-01-24T03:35:01;9.50;;;5.67;;
16407;SDS011;8313;49.894;8.084;2023-01-24T03:37:30;11.80;;;6.47;;
16407;SDS011;8313;49.894;8.084;2023-01-24T03:40:16;12.03;;;5.00;;
16407;SDS011;8313;49.894;8.084;2023-01-24T03:42:44;12.70;;;6.43;;
16407;SDS011;8313;49.894;8.084;2023-01-24T03:45:15;9.97;;;6.27;;
16407;SDS011;8313;49.894;8.084;2023-01-24T03:47:47;10.87;;;5.30;;
16407;SDS011;8313;49.894;8.084;2023-01-24T03:50:23;12.13;;;6.33;;
16407;SDS011;8313;49.894;8.084;2023-01-24T03:53:09;11.20;;;6.53;;
16407;SDS011;8313;49.894;8.084;2023-01-24T03:55:37;12.47;;;5.90;;
16407;SDS011;8313;49.894;8.084;2023-01-24T03:58:03;12.57;;;6.00;;
16407;SDS011;8313;49.894;8.084;2023-01-24T04:00:30;13.00;;;6.47;;
16407;SDS011;8313;49.894;8.084;2023-01-24T04:03:00;12.57;;;5.60;;
16407;SDS011;8313;49.894;8.084;2023-01-24T04:05:26;14.37;;;6.27;;
16407;SDS011;8313;49.894;8.084;2023-01-24T04:07:55;12.90;;;6.80;;
16407;SDS011;8313;49.894;8.084;2023-01-24T04:10:22;13.60;;;6.50;;
16407;SDS011;8313;49.894;8.084;2023-01-24T04:12:49;11.70;;;6.90;;
16407;SDS011;8313;49.894;8.084;2023-01-24T04:15:16;12.60;;;6.50;;
16407;SDS011;8313;49.894;8.084;2023-01-24T04:17:55;11.23;;;5.60;;
16407;SDS011;8313;49.894;8.084;2023-01-24T04:20:23;15.53;;;6.47;;
16407;SDS011;8313;49.894;8.084;2023-01-24T04:22:49;14.43;;;6.60;;
16407;SDS011;8313;49.894;8.084;2023-01-24T04:25:15;12.33;;;6.03;;
16407;SDS011;8313;49.894;8.084;2023-01-24T04:27:44;10.40;;;6.53;;
16407;SDS011;8313;49.894;8.084;2023-01-24T04:30:13;13.80;;;6.50;;
16407;SDS011;8313;49.894;8.084;2023-01-24T04:32:43;13.47;;;7.60;;
16407;SDS011;8313;49.894;8.084;2023-01-24T04:35:27;15.63;;;7.13;;
16407;SDS011;8313;49.894;8.084;2023-01-24T04:38:01;11.83;;;5.77;;
16407;SDS011;8313;49.894;8.084;2023-01-24T04:40:46;13.93;;;5.70;;
16407;SDS011;8313;49.894;8.084;2023-01-24T04:43:13;14.07;;;6.80;;
16407;SDS011;8313;49.894;8.084;2023-01-24T04:45:43;9.60;;;5.67;;
16407;SDS011;8313;49.894;8.084;2023-01-24T04:48:12;12.83;;;5.73;;
16407;SDS011;8313;49.894;8.084;2023-01-24T04:50:38;11.70;;;5.80;;
16407;SDS011;8313;49.894;8.084;2023-01-24T04:53:04;13.37;;;6.77;;
16407;SDS011;8313;49.894;8.084;2023-01-24T04:55:31;12.83;;;7.23;;
16407;SDS011;8313;49.894;8.084;2023-01-24T04:57:56;10.13;;;6.77;;
16407;SDS011;8313;49.894;8.084;2023-01-24T05:00:22;12.37;;;6.30;;
16407;SDS011;8313;49.894;8.084;2023-01-24T05:02:50;13.87;;;7.10;;
16407;SDS011;8313;49.894;8.084;2023-01-24T05:05:17;13.77;;;6.77;;
16407;SDS011;8313;49.894;8.084;2023-01-24T05:07:43;11.80;;;5.90;;
16407;SDS011;8313;49.894;8.084;2023-01-24T05:10:13;13.63;;;6.87;;
16407;SDS011;8313;49.894;8.084;2023-01-24T05:12:39;13.90;;;7.07;;
16407;SDS011;8313;49.894;8.084;2023-01-24T05:15:12;11.30;;;6.50;;
16407;SDS011;8313;49.894;8.084;2023-01-24T05:17:38;10.23;;;5.37;;
16407;SDS011;8313;49.894;8.084;2023-01-24T05:20:04;11.80;;;6.33;;
16407;SDS011;8313;49.894;8.084;2023-01-24T05:22:30;9.47;;;6.97;;
16407;SDS011;8313;49.894;8.084;2023-01-24T05:24:56;16.33;;;6.60;;
16407;SDS011;8313;49.894;8.084;2023-01-24T05:27:22;11.30;;;6.37;;
16407;SDS011;8313;49.894;8.084;2023-01-24T05:29:54;9.23;;;6.10;;
16407;SDS011;8313;49.894;8.084;2023-01-24T05:32:20;12.13;;;6.10;;
16407;SDS011;8313;49.894;8.084;2023-01-24T05:34:46;14.13;;;6.90;;
16407;SDS011;8313;49.894;8.084;2023-01-24T05:37:13;13.17;;;6.67;;
16407;SDS011;8313;49.894;8.084;2023-01-24T05:39:41;13.50;;;7.17;;
16407;SDS011;8313;49.894;8.084;2023-01-24T05:42:07;10.50;;;6.13;;
16407;SDS011;8313;49.894;8.084;2023-01-24T05:44:40;18.13;;;7.10;;
16407;SDS011;8313;49.894;8.084;2023-01-24T05:47:06;10.90;;;6.47;;
16407;SDS011;8313;49.894;8.084;2023-01-24T05:49:36;16.70;;;6.20;;
16407;SDS011;8313;49.894;8.084;2023-01-24T05:52:02;13.10;;;5.90;;
16407;SDS011;8313;49.894;8.084;2023-01-24T05:54:45;11.73;;;6.07;;
16407;SDS011;8313;49.894;8.084;2023-01-24T05:57:23;10.97;;;6.30;;
16407;SDS011;8313;49.894;8.084;2023-01-24T06:00:08;13.50;;;7.40;;
16407;SDS011;8313;49.894;8.084;2023-01-24T06:02:42;10.73;;;6.20;;
16407;SDS011;8313;49.894;8.084;2023-01-24T06:05:09;8.77;;;4.90;;
16407;SDS011;8313;49.894;8.084;2023-01-24T06:07:35;10.77;;;5.00;;
16407;SDS011;8313;49.894;8.084;2023-01-24T06:10:00;7.20;;;4.70;;
16407;SDS011;8313;49.894;8.084;2023-01-24T06:12:34;10.03;;;4.87;;
16407;SDS011;8313;49.894;8.084;2023-01-24T06:15:01;17.83;;;6.17;;
16407;SDS011;8313;49.894;8.084;2023-01-24T06:17:27;7.47;;;4.77;;
16407;SDS011;8313;49.894;8.084;2023-01-24T06:19:52;13.10;;;5.60;;
16407;SDS011;8313;49.894;8.084;2023-01-24T06:22:21;12.23;;;6.27;;
16407;SDS011;8313;49.894;8.084;2023-01-24T06:24:53;10.20;;;5.03;;
16407;SDS011;8313;49.894;8.084;2023-01-24T06:27:27;9.70;;;5.63;;
16407;SDS011;8313;49.894;8.084;2023-01-24T06:29:53;10.83;;;6.50;;
16407;SDS011;8313;49.894;8.084;2023-01-24T06:35:14;9.90;;;5.60;;
16407;SDS011;8313;49.894;8.084;2023-01-24T06:37:51;12.60;;;5.90;;
16407;SDS011;8313;49.894;8.084;2023-01-24T06:40:18;9.83;;;5.70;;
16407;SDS011;8313;49.894;8.084;2023-01-24T06:42:45;14.47;;;7.13;;
16407;SDS011;8313;49.894;8.084;2023-01-24T06:45:12;12.10;;;6.43;;
16407;SDS011;8313;49.894;8.084;2023-01-24T06:47:37;11.87;;;5.87;;
16407;SDS011;8313;49.894;8.084;2023-01-24T06:50:04;11.93;;;5.73;;
16407;SDS011;8313;49.894;8.084;2023-01-24T06:52:33;10.70;;;5.73;;
16407;SDS011;8313;49.894;8.084;2023-01-24T06:54:59;11.03;;;5.40;;
16407;SDS011;8313;49.894;8.084;2023-01-24T06:57:25;8.87;;;4.90;;
16407;SDS011;8313;49.894;8.084;2023-01-24T06:59:50;11.20;;;6.87;;
16407;SDS011;8313;49.894;8.084;2023-01-24T07:02:16;11.10;;;5.33;;
16407;SDS011;8313;49.894;8.084;2023-01-24T07:04:42;11.07;;;6.20;;
16407;SDS011;8313;49.894;8.084;2023-01-24T07:07:07;11.93;;;6.10;;
16407;SDS011;8313;49.894;8.084;2023-01-24T07:09:33;9.53;;;6.17;;
16407;SDS011;8313;49.894;8.084;2023-01-24T07:11:59;8.50;;;4.93;;
16407;SDS011;8313;49.894;8.084;2023-01-24T07:14:25;12.47;;;6.10;;
16407;SDS011;8313;49.894;8.084;2023-01-24T07:16:51;9.17;;;5.40;;
16407;SDS011;8313;49.894;8.084;2023-01-24T07:19:20;13.80;;;5.80;;
16407;SDS011;8313;49.894;8.084;2023-01-24T07:21:47;7.87;;;4.30;;
16407;SDS011;8313;49.894;8.084;2023-01-24T07:24:15;12.43;;;7.13;;
16407;SDS011;8313;49.894;8.084;2023-01-24T07:26:43;11.03;;;5.23;;
16407;SDS011;8313;49.894;8.084;2023-01-24T07:29:09;13.17;;;5.40;;
16407;SDS011;8313;49.894;8.084;2023-01-24T07:31:36;9.30;;;5.13;;
16407;SDS011;8313;49.894;8.084;2023-01-24T07:34:02;12.90;;;5.63;;
16407;SDS011;8313;49.894;8.084;2023-01-24T07:36:28;13.07;;;5.40;;
16407;SDS011;8313;49.894;8.084;2023-01-24T07:38:54;11.30;;;6.00;;
16407;SDS011;8313;49.894;8.084;2023-01-24T07:41:20;9.87;;;5.13;;
16407;SDS011;8313;49.894;8.084;2023-01-24T07:43:51;12.30;;;6.90;;
16407;SDS011;8313;49.894;8.084;2023-01-24T07:46:18;9.10;;;6.30;;
16407;SDS011;8313;49.894;8.084;2023-01-24T07:48:44;17.47;;;7.13;;
16407;SDS011;8313;49.894;8.084;2023-01-24T07:51:09;13.93;;;7.30;;
16407;SDS011;8313;49.894;8.084;2023-01-24T07:53:35;8.80;;;4.60;;
16407;SDS011;8313;49.894;8.084;2023-01-24T07:56:02;11.37;;;5.43;;
16407;SDS011;8313;49.894;8.084;2023-01-24T07:58:29;14.77;;;6.50;;
16407;SDS011;8313;49.894;8.084;2023-01-24T08:00:55;12.20;;;5.80;;
16407;SDS011;8313;49.894;8.084;2023-01-24T08:03:20;16.60;;;7.70;;
16407;SDS011;8313;49.894;8.084;2023-01-24T08:05:46;13.20;;;6.53;;
16407;SDS011;8313;49.894;8.084;2023-01-24T08:08:12;11.10;;;6.23;;
16407;SDS011;8313;49.894;8.084;2023-01-24T08:10:37;12.60;;;6.50;;
16407;SDS011;8313;49.894;8.084;2023-01-24T08:13:03;11.30;;;5.60;;
16407;SDS011;8313;49.894;8.084;2023-01-24T08:15:29;11.33;;;6.27;;
16407;SDS011;8313;49.894;8.084;2023-01-24T08:17:55;13.20;;;6.20;;
16407;SDS011;8313;49.894;8.084;2023-01-24T08:20:20;10.53;;;5.47;;
16407;SDS011;8313;49.894;8.084;2023-01-24T08:22:46;10.77;;;5.03;;
16407;SDS011;8313;49.894;8.084;2023-01-24T08:25:12;8.93;;;5.07;;
16407;SDS011;8313;49.894;8.084;2023-01-24T08:27:40;9.07;;;5.00;;
16407;SDS011;8313;49.894;8.084;2023-01-24T08:30:07;8.93;;;4.83;;
16407;SDS011;8313;49.894;8.084;2023-01-24T08:32:35;10.07;;;5.00;;
16407;SDS011;8313;49.894;8.084;2023-01-24T08:35:02;11.60;;;5.70;;
16407;SDS011;8313;49.894;8.084;2023-01-24T08:37:28;8.27;;;5.30;;
16407;SDS011;8313;49.894;8.084;2023-01-24T08:39:53;12.30;;;4.70;;
16407;SDS011;8313;49.894;8.084;2023-01-24T08:42:21;17.10;;;6.70;;
16407;SDS011;8313;49.894;8.084;2023-01-24T08:44:48;10.33;;;5.53;;
16407;SDS011;8313;49.894;8.084;2023-01-24T08:47:14;10.47;;;6.30;;
16407;SDS011;8313;49.894;8.084;2023-01-24T08:49:39;10.83;;;5.83;;
16407;SDS011;8313;49.894;8.084;2023-01-24T08:52:05;11.50;;;5.73;;
16407;SDS011;8313;49.894;8.084;2023-01-24T08:54:32;15.60;;;7.70;;
16407;SDS011;8313;49.894;8.084;2023-01-24T08:56:58;13.27;;;6.40;;
16407;SDS011;8313;49.894;8.084;2023-01-24T08:59:24;13.10;;;6.17;;
16407;SDS011;8313;49.894;8.084;2023-01-24T09:01:49;11.13;;;6.30;;
16407;SDS011;8313;49.894;8.084;2023-01-24T09:04:15;17.60;;;7.17;;
16407;SDS011;8313;49.894;8.084;2023-01-24T09:06:41;13.13;;;5.27;;
16407;SDS011;8313;49.894;8.084;2023-01-24T09:09:06;9.03;;;4.93;;
16407;SDS011;8313;49.894;8.084;2023-01-24T09:11:32;9.03;;;6.13;;
16407;SDS011;8313;49.894;8.084;2023-01-24T09:13:58;10.80;;;5.10;;
16407;SDS011;8313;49.894;8.084;2023-01-24T09:16:23;10.27;;;6.33;;
16407;SDS011;8313;49.894;8.084;2023-01-24T09:18:49;17.30;;;7.17;;
16407;SDS011;8313;49.894;8.084;2023-01-24T09:21:16;12.80;;;5.43;;
16407;SDS011;8313;49.894;8.084;2023-01-24T09:23:42;9.83;;;5.03;;
16407;SDS011;8313;49.894;8.084;2023-01-24T09:26:08;12.17;;;6.67;;
16407;SDS011;8313;49.894;8.084;2023-01-24T09:28:34;10.40;;;5.40;;
16407;SDS011;8313;49.894;8.084;2023-01-24T09:31:00;10.60;;;5.73;;
16407;SDS011;8313;49.894;8.084;2023-01-24T09:33:26;11.90;;;6.10;;
16407;SDS011;8313;49.894;8.084;2023-01-24T09:35:59;10.27;;;5.30;;
16407;SDS011;8313;49.894;8.084;2023-01-24T09:38:27;8.43;;;5.43;;
16407;SDS011;8313;49.894;8.084;2023-01-24T09:43:52;9.90;;;5.20;;
16407;SDS011;8313;49.894;8.084;2023-01-24T09:49:17;8.90;;;4.80;;
16407;SDS011;8313;49.894;8.084;2023-01-24T09:52:06;9.90;;;5.37;;
16407;SDS011;8313;49.894;8.084;2023-01-24T09:54:38;10.27;;;5.17;;
16407;SDS011;8313;49.894;8.084;2023-01-24T09:57:17;10.00;;;5.63;;
16407;SDS011;8313;49.894;8.084;2023-01-24T09:59:50;21.20;;;9.33;;
16407;SDS011;8313;49.894;8.084;2023-01-24T10:02:20;13.83;;;6.67;;
16407;SDS011;8313;49.894;8.084;2023-01-24T10:04:47;12.30;;;6.03;;
16407;SDS011;8313;49.894;8.084;2023-01-24T10:10:13;12.07;;;5.80;;
16407;SDS011;8313;49.894;8.084;2023-01-24T10:13:02;13.33;;;6.87;;
16407;SDS011;8313;49.894;8.084;2023-01-24T10:18:22;15.80;;;7.40;;
16407;SDS011;8313;49.894;8.084;2023-01-24T10:23:31;15.07;;;6.33;;
16407;SDS011;8313;49.894;8.084;2023-01-24T10:26:01;8.87;;;5.30;;
16407;SDS011;8313;49.894;8.084;2023-01-24T10:28:47;8.17;;;5.07;;
16407;SDS011;8313;49.894;8.084;2023-01-24T10:37:00;8.53;;;5.37;;
16407;SDS011;8313;49.894;8.084;2023-01-24T10:39:42;11.00;;;5.80;;
16407;SDS011;8313;49.894;8.084;2023-01-24T10:42:27;12.97;;;5.93;;
16407;SDS011;8313;49.894;8.084;2023-01-24T10:44:57;11.80;;;5.43;;
16407;SDS011;8313;49.894;8.084;2023-01-24T10:51:09;9.20;;;4.77;;
16407;SDS011;8313;49.894;8.084;2023-01-24T10:53:45;11.67;;;5.40;;
16407;SDS011;8313;49.894;8.084;2023-01-24T10:56:12;13.37;;;5.97;;
16407;SDS011;8313;49.894;8.084;2023-01-24T10:58:40;17.33;;;6.80;;
16407;SDS011;8313;49.894;8.084;2023-01-24T11:01:15;10.23;;;5.70;;
16407;SDS011;8313;49.894;8.084;2023-01-24T11:03:49;11.13;;;6.97;;
16407;SDS011;8313;49.894;8.084;2023-01-24T11:09:04;9.33;;;6.50;;
16407;SDS011;8313;49.894;8.084;2023-01-24T11:11:34;26.13;;;15.37;;
16407;SDS011;8313;49.894;8.084;2023-01-24T11:14:14;36.60;;;25.40;;
16407;SDS011;8313;49.894;8.084;2023-01-24T11:16:46;25.30;;;17.00;;
16407;SDS011;8313;49.894;8.084;2023-01-24T11:21:58;10.03;;;6.43;;
16407;SDS011;8313;49.894;8.084;2023-01-24T11:24:44;9.80;;;6.00;;
16407;SDS011;8313;49.894;8.084;2023-01-24T11:27:18;12.10;;;6.80;;
16407;SDS011;8313;49.894;8.084;2023-01-24T11:29:53;8.73;;;6.43;;
16407;SDS011;8313;49.894;8.084;2023-01-24T11:32:42;14.63;;;6.50;;
16407;SDS011;8313;49.894;8.084;2023-01-24T11:37:51;11.83;;;5.80;;
16407;SDS011;8313;49.894;8.084;2023-01-24T11:48:22;9.60;;;5.43;;
16407;SDS011;8313;49.894;8.084;2023-01-24T11:51:09;11.80;;;6.37;;
16407;SDS011;8313;49.894;8.084;2023-01-24T11:59:08;6.77;;;4.87;;
16407;SDS011;8313;49.894;8.084;2023-01-24T12:04:36;10.40;;;6.03;;
16407;SDS011;8313;49.894;8.084;2023-01-24T12:10:33;9.63;;;5.60;;
16407;SDS011;8313;49.894;8.084;2023-01-24T12:21:32;9.23;;;5.20;;
16407;SDS011;8313;49.894;8.084;2023-01-24T12:26:29;9.30;;;4.90;;
16407;SDS011;8313;49.894;8.084;2023-01-24T12:29:01;9.63;;;4.67;;
16407;SDS011;8313;49.894;8.084;2023-01-24T12:31:32;7.77;;;5.10;;
16407;SDS011;8313;49.894;8.084;2023-01-24T12:36:57;9.47;;;5.97;;
16407;SDS011;8313;49.894;8.084;2023-01-24T12:39:35;8.63;;;5.97;;
16407;SDS011;8313;49.894;8.084;2023-01-24T12:42:36;11.93;;;6.80;;
16407;SDS011;8313;49.894;8.084;2023-01-24T12:45:10;10.93;;;8.10;;
16407;SDS011;8313;49.894;8.084;2023-01-24T12:48:47;15.00;;;7.40;;
16407;SDS011;8313;49.894;8.084;2023-01-24T12:50:40;13.70;;;7.07;;
16407;SDS011;8313;49.894;8.084;2023-01-24T12:53:26;21.43;;;9.70;;
16407;SDS011;8313;49.894;8.084;2023-01-24T12:56:01;16.80;;;8.10;;
16407;SDS011;8313;49.894;8.084;2023-01-24T12:58:39;12.30;;;7.87;;
16407;SDS011;8313;49.894;8.084;2023-01-24T13:03:59;14.10;;;6.03;;
16407;SDS011;8313;49.894;8.084;2023-01-24T13:11:47;13.30;;;7.67;;
16407;SDS011;8313;49.894;8.084;2023-01-24T13:14:18;15.80;;;8.67;;
16407;SDS011;8313;49.894;8.084;2023-01-24T13:25:45;8.67;;;5.67;;
16407;SDS011;8313;49.894;8.084;2023-01-24T13:30:55;8.70;;;5.27;;
16407;SDS011;8313;49.894;8.084;2023-01-24T13:33:29;13.57;;;7.17;;
16407;SDS011;8313;49.894;8.084;2023-01-24T13:36:04;13.33;;;6.27;;
16407;SDS011;8313;49.894;8.084;2023-01-24T13:38:36;9.70;;;5.57;;
16407;SDS011;8313;49.894;8.084;2023-01-24T13:41:13;13.23;;;7.17;;
16407;SDS011;8313;49.894;8.084;2023-01-24T13:47:21;12.43;;;6.80;;
16407;SDS011;8313;49.894;8.084;2023-01-24T13:49:19;10.47;;;5.17;;
16407;SDS011;8313;49.894;8.084;2023-01-24T13:51:58;13.30;;;6.63;;
16407;SDS011;8313;49.894;8.084;2023-01-24T14:07:58;20.43;;;8.27;;
16407;SDS011;8313;49.894;8.084;2023-01-24T14:10:39;31.80;;;9.63;;
16407;SDS011;8313;49.894;8.084;2023-01-24T14:16:58;17.70;;;8.37;;
16407;SDS011;8313;49.894;8.084;2023-01-24T14:29:45;18.50;;;8.50;;
16407;SDS011;8313;49.894;8.084;2023-01-24T14:32:24;13.60;;;6.23;;
16407;SDS011;8313;49.894;8.084;2023-01-24T14:37:48;14.70;;;8.27;;
16407;SDS011;8313;49.894;8.084;2023-01-24T14:42:41;12.10;;;6.73;;
16407;SDS011;8313;49.894;8.084;2023-01-24T14:45:12;12.60;;;5.87;;
16407;SDS011;8313;49.894;8.084;2023-01-24T14:47:40;10.10;;;5.67;;
16407;SDS011;8313;49.894;8.084;2023-01-24T14:52:53;10.10;;;6.57;;
16407;SDS011;8313;49.894;8.084;2023-01-24T14:57:52;11.20;;;6.13;;
16407;SDS011;8313;49.894;8.084;2023-01-24T15:00:19;10.57;;;5.80;;
16407;SDS011;8313;49.894;8.084;2023-01-24T15:02:53;11.17;;;5.97;;
16407;SDS011;8313;49.894;8.084;2023-01-24T15:07:53;9.90;;;5.70;;
16407;SDS011;8313;49.894;8.084;2023-01-24T15:12:51;9.60;;;5.10;;
16407;SDS011;8313;49.894;8.084;2023-01-24T15:15:18;9.50;;;5.60;;
16407;SDS011;8313;49.894;8.084;2023-01-24T15:17:44;10.70;;;5.33;;
16407;SDS011;8313;49.894;8.084;2023-01-24T15:20:16;10.93;;;5.13;;
16407;SDS011;8313;49.894;8.084;2023-01-24T15:22:47;9.00;;;5.17;;
16407;SDS011;8313;49.894;8.084;2023-01-24T15:25:22;8.37;;;5.40;;
16407;SDS011;8313;49.894;8.084;2023-01-24T15:27:53;9.30;;;5.50;;
16407;SDS011;8313;49.894;8.084;2023-01-24T15:38:17;12.00;;;5.60;;
16407;SDS011;8313;49.894;8.084;2023-01-24T15:44:04;11.00;;;5.40;;
16407;SDS011;8313;49.894;8.084;2023-01-24T15:46:35;22.47;;;11.10;;
16407;SDS011;8313;49.894;8.084;2023-01-24T15:54:28;28.23;;;13.10;;
16407;SDS011;8313;49.894;8.084;2023-01-24T15:56:57;24.57;;;11.80;;
16407;SDS011;8313;49.894;8.084;2023-01-24T15:59:25;16.10;;;8.90;;
16407;SDS011;8313;49.894;8.084;2023-01-24T16:01:52;15.13;;;6.53;;
16407;SDS011;8313;49.894;8.084;2023-01-24T16:04:18;13.80;;;7.37;;
16407;SDS011;8313;49.894;8.084;2023-01-24T16:06:45;12.90;;;5.53;;
16407;SDS011;8313;49.894;8.084;2023-01-24T16:09:11;8.57;;;5.13;;
16407;SDS011;8313;49.894;8.084;2023-01-24T16:11:37;11.43;;;6.67;;
16407;SDS011;8313;49.894;8.084;2023-01-24T16:14:10;8.97;;;6.00;;
16407;SDS011;8313;49.894;8.084;2023-01-24T16:16:40;11.67;;;5.87;;
16407;SDS011;8313;49.894;8.084;2023-01-24T16:19:24;15.03;;;6.17;;
16407;SDS011;8313;49.894;8.084;2023-01-24T16:21:50;15.70;;;7.53;;
16407;SDS011;8313;49.894;8.084;2023-01-24T16:24:16;13.03;;;7.27;;
16407;SDS011;8313;49.894;8.084;2023-01-24T16:26:49;15.67;;;7.90;;
16407;SDS011;8313;49.894;8.084;2023-01-24T16:29:22;11.47;;;6.10;;
16407;SDS011;8313;49.894;8.084;2023-01-24T16:31:50;18.93;;;7.63;;
16407;SDS011;8313;49.894;8.084;2023-01-24T16:34:16;15.87;;;6.70;;
16407;SDS011;8313;49.894;8.084;2023-01-24T16:36:43;11.10;;;6.80;;
16407;SDS011;8313;49.894;8.084;2023-01-24T16:39:10;11.97;;;5.73;;
16407;SDS011;8313;49.894;8.084;2023-01-24T16:41:44;14.77;;;7.03;;
16407;SDS011;8313;49.894;8.084;2023-01-24T16:44:14;15.23;;;7.07;;
16407;SDS011;8313;49.894;8.084;2023-01-24T16:46:40;14.70;;;6.43;;
16407;SDS011;8313;49.894;8.084;2023-01-24T16:49:12;16.50;;;7.60;;
16407;SDS011;8313;49.894;8.084;2023-01-24T16:51:38;16.23;;;7.30;;
16407;SDS011;8313;49.894;8.084;2023-01-24T16:54:03;15.70;;;8.00;;
16407;SDS011;8313;49.894;8.084;2023-01-24T16:56:29;10.97;;;6.07;;
16407;SDS011;8313;49.894;8.084;2023-01-24T16:58:55;10.83;;;6.13;;
16407;SDS011;8313;49.894;8.084;2023-01-24T17:01:21;17.07;;;7.60;;
16407;SDS011;8313;49.894;8.084;2023-01-24T17:03:49;13.50;;;7.10;;
16407;SDS011;8313;49.894;8.084;2023-01-24T17:06:16;13.63;;;7.40;;
16407;SDS011;8313;49.894;8.084;2023-01-24T17:08:43;11.20;;;6.07;;
16407;SDS011;8313;49.894;8.084;2023-01-24T17:11:09;10.73;;;5.50;;
16407;SDS011;8313;49.894;8.084;2023-01-24T17:13:36;12.77;;;6.80;;
16407;SDS011;8313;49.894;8.084;2023-01-24T17:16:05;10.03;;;5.77;;
16407;SDS011;8313;49.894;8.084;2023-01-24T17:18:33;10.83;;;6.60;;
16407;SDS011;8313;49.894;8.084;2023-01-24T17:21:00;14.43;;;7.17;;
16407;SDS011;8313;49.894;8.084;2023-01-24T17:23:31;9.43;;;6.10;;
16407;SDS011;8313;49.894;8.084;2023-01-24T17:26:04;13.03;;;7.10;;
16407;SDS011;8313;49.894;8.084;2023-01-24T17:28:38;17.57;;;10.47;;
16407;SDS011;8313;49.894;8.084;2023-01-24T17:31:15;26.27;;;15.97;;
16407;SDS011;8313;49.894;8.084;2023-01-24T17:33:43;30.40;;;19.00;;
16407;SDS011;8313;49.894;8.084;2023-01-24T17:36:10;26.20;;;16.20;;
16407;SDS011;8313;49.894;8.084;2023-01-24T17:38:40;17.33;;;10.47;;
16407;SDS011;8313;49.894;8.084;2023-01-24T17:41:17;16.57;;;9.40;;
16407;SDS011;8313;49.894;8.084;2023-01-24T17:43:44;17.17;;;7.70;;
16407;SDS011;8313;49.894;8.084;2023-01-24T17:46:11;11.73;;;6.40;;
16407;SDS011;8313;49.894;8.084;2023-01-24T17:48:36;10.70;;;6.23;;
16407;SDS011;8313;49.894;8.084;2023-01-24T17:51:06;14.07;;;6.93;;
16407;SDS011;8313;49.894;8.084;2023-01-24T17:53:32;10.63;;;6.10;;